• Join FlightAware (Why Join?)
  • Login
  • US Flag 
04:54AM EDT


 

Airport Tracker/Info


-or-


 

Live Flight TrackerFlight Track Log ✈ UAL1083 ✈ 22-Sep-2013 ✈ KLAX - KCLE

Flight Track Log - Related Links

Times and Time Zones

All times are in EDT time to prevent confusion due to time zone crossing. See the UAL1083 flight status page for this flight to view local times or setup timezone preferences in your user account.

Time Position Orientation Groundspeed Altitude Reporting Facility
EDT Latitude Longitude Course Direction KTS MPH feet Rate Location/Type
07:31PM 33.9300 -118.4700 258° West 223 257 2,200  Level FlightAware
07:31PM 33.9230 -118.4920 249° West 223 257 3,100 2,280 Climbing FlightAware
07:31PM 33.9150 -118.5160 248° West 237 273 3,700 1,800 Climbing FlightAware
07:32PM 33.9070 -118.5370 245° Southwest 264 304 4,200 2,400 Climbing FlightAware
07:32PM 33.8920 -118.5600 232° Southwest 278 320 5,200 3,060 Climbing FlightAware
07:32PM 33.8850 -118.5650 211° Southwest 279 321 5,600 2,760 Climbing FlightAware
07:32PM 33.8760 -118.5710 209° Southwest 287 330 5,900 2,520 Climbing FlightAware
07:32PM 33.8620 -118.5740 190° South 292 336 6,400 3,600 Climbing FlightAware
07:33PM 33.8330 -118.5640 164° South 284 327 7,900 3,840 Climbing FlightAware
07:33PM 33.8240 -118.5560 144° Southeast 287 330 8,400 3,000 Climbing FlightAware
07:33PM 33.8180 -118.5470 129° Southeast 288 331 8,700 2,460 Climbing FlightAware
07:33PM 33.8150 -118.5420 126° Southeast 290 334 8,900 2,400 Climbing FlightAware
07:33PM 33.8110 -118.5320 116° Southeast 291 335 9,100 2,220 Climbing FlightAware
07:33PM 33.8090 -118.5140 98° East 292 336 9,500 2,280 Climbing FlightAware
07:34PM 33.8180 -118.4850 70° East 289 333 10,300 2,520 Climbing FlightAware
07:34PM 33.8240 -118.4750 54° Northeast 283 326 10,700 3,300 Climbing FlightAware
07:34PM 33.8360 -118.4650 35° Northeast 276 318 11,300 3,120 Climbing FlightAware
07:34PM 33.8470 -118.4600 21° North 273 314 11,700 1,560 Climbing FlightAware
07:35PM 33.8910 -118.4460 15° North 304 350 12,500 1,200 Climbing FlightAware
07:35PM 33.9310 -118.4270 22° Northeast 341 392 13,000 1,020 Climbing FlightAware
07:35PM 33.9460 -118.4100 43° Northeast 359 413 13,200 1,860 Climbing FlightAware
07:36PM 33.9800 -118.3490 56° Northeast 373 429 14,500 2,100 Climbing FlightAware
07:37PM 34.0150 -118.2870 56° Northeast 384 442 15,700 1,680 Climbing FlightAware
07:37PM 34.0490 -118.2280 55° Northeast 404 465 16,500 1,680 Climbing FlightAware
07:38PM 34.0880 -118.1590 56° Northeast 413 475 17,700 1,800 Climbing FlightAware
07:38PM 34.1260 -118.0910 56° Northeast 423 487 18,700 1,680 Climbing FlightAware
07:39PM 34.1660 -118.0200 56° Northeast 434 499 19,700 1,560 Climbing FlightAware
07:39PM 34.2040 -117.9540 55° Northeast 440 506 20,500 1,380 Climbing FlightAware
07:40PM 34.2430 -117.8840 56° Northeast 444 511 21,300 1,320 Climbing FlightAware
07:41PM 34.2870 -117.8060 56° Northeast 449 517 22,100 1,440 Climbing FlightAware
07:41PM 34.3240 -117.7390 56° Northeast 450 518 23,000 1,440 Climbing FlightAware
07:42PM 34.3670 -117.6630 56° Northeast 454 522 23,800 1,140 Climbing FlightAware
07:42PM 34.4080 -117.5890 56° Northeast 460 529 24,400 1,140 Climbing FlightAware
07:43PM 34.4530 -117.5080 56° Northeast 465 535 25,200 1,140 Climbing FlightAware
07:44PM 34.4970 -117.4280 56° Northeast 470 541 25,800 960 Climbing FlightAware
07:44PM 34.5320 -117.3660 56° Northeast 475 547 26,300 840 Climbing FlightAware
07:45PM 34.5790 -117.2810 56° Northeast 480 552 26,800 900 Climbing FlightAware
07:45PM 34.6150 -117.2160 56° Northeast 483 556 27,300 960 Climbing FlightAware
07:46PM 34.6620 -117.1300 56° Northeast 484 557 27,900 1,140 Climbing FlightAware
07:46PM 34.6980 -117.0650 56° Northeast 481 554 28,600 1,380 Climbing FlightAware
07:47PM 34.7460 -116.9770 56° Northeast 478 550 29,500 1,200 Climbing FlightAware
07:47PM 34.7870 -116.9010 57° Northeast 479 551 30,100 1,020 Climbing FlightAware
07:48PM 34.8300 -116.8230 56° Northeast 480 552 30,700 1,080 Climbing FlightAware
07:49PM 34.8750 -116.7400 57° Northeast 478 550 31,400 1,080 Climbing FlightAware
07:49PM 34.9180 -116.6610 56° Northeast 477 549 32,000 900 Climbing FlightAware
07:50PM 34.9640 -116.5800 55° Northeast 476 548 32,500 660 Climbing FlightAware
07:50PM 35.0090 -116.5200 48° Northeast 473 544 32,800 420 Climbing FlightAware
07:51PM 35.0640 -116.4510 46° Northeast 474 545 33,000 120 Climbing FlightAware
07:52PM 35.1190 -116.3830 45° Northeast 470 541 33,000  Level FlightAware
07:52PM 35.1730 -116.3160 45° Northeast 471 542 33,000  Level FlightAware
07:53PM 35.2270 -116.2480 46° Northeast 470 541 33,000  Level FlightAware
07:53PM 35.2770 -116.1860 45° Northeast 471 542 33,000  Level FlightAware
07:54PM 35.3310 -116.1170 46° Northeast 471 542 33,000  Level FlightAware
07:54PM 35.3840 -116.0510 45° Northeast 468 539 33,000  Level FlightAware
07:55PM 35.4390 -115.9810 46° Northeast 471 542 33,000  Level FlightAware
07:56PM 35.4950 -115.9100 46° Northeast 471 542 33,000  Level FlightAware
07:56PM 35.5430 -115.8500 45° Northeast 471 542 33,000  Level FlightAware
07:57PM 35.5980 -115.7780 47° Northeast 473 544 33,000  Level FlightAware
07:57PM 35.6520 -115.7090 46° Northeast 474 545 33,000  Level FlightAware
07:58PM 35.7020 -115.6460 46° Northeast 473 544 33,000  Level FlightAware
07:59PM 35.7550 -115.5780 46° Northeast 473 544 33,000  Level FlightAware
07:59PM 35.8100 -115.5070 46° Northeast 472 543 33,000  Level FlightAware
08:00PM 35.8670 -115.4350 46° Northeast 473 544 33,000  Level FlightAware
08:00PM 35.9160 -115.3720 46° Northeast 473 544 33,000  Level FlightAware
08:01PM 35.9700 -115.3020 46° Northeast 474 545 33,000  Level FlightAware
08:01PM 36.0180 -115.2400 46° Northeast 472 543 33,000  Level FlightAware
08:02PM 36.0680 -115.1650 50° Northeast 480 552 33,000  Level FlightAware
08:02PM 36.0860 -115.1220 63° Northeast 490 564 33,000  Level FlightAware
08:03PM 36.1050 -115.0360 75° East 500 575 33,000  Level FlightAware
08:03PM 36.1250 -114.9380 76° East 499 574 33,000  Level FlightAware
08:04PM 36.1450 -114.8340 77° East 499 574 33,000  Level FlightAware
08:05PM 36.1650 -114.7330 76° East 499 574 33,000  Level FlightAware
08:05PM 36.1820 -114.6470 76° East 498 573 33,000  Level FlightAware
08:06PM 36.2020 -114.5470 76° East 499 574 33,000  Level FlightAware
08:06PM 36.2210 -114.4500 76° East 498 573 33,000  Level FlightAware
08:07PM 36.2400 -114.3500 77° East 497 572 33,000  Level FlightAware
08:08PM 36.2570 -114.2620 77° East 496 571 33,000  Level FlightAware
08:08PM 36.2770 -114.1610 76° East 495 570 33,000  Level FlightAware
08:09PM 36.2950 -114.0670 77° East 494 568 33,000  Level FlightAware
08:09PM 36.3150 -113.9620 77° East 488 562 33,000  Level FlightAware
08:10PM 36.3300 -113.8830 77° East 484 557 33,000  Level FlightAware
08:10PM 36.3500 -113.7820 76° East 484 557 33,000  Level FlightAware
08:11PM 36.3680 -113.6830 77° East 487 560 33,000  Level FlightAware
08:12PM 36.3850 -113.5950 76° East 490 564 33,000  Level FlightAware
08:12PM 36.4030 -113.4980 77° East 495 570 33,000  Level FlightAware
08:13PM 36.4210 -113.4010 77° East 495 570 33,000  Level FlightAware
08:13PM 36.4370 -113.3140 77° East 496 571 33,000  Level FlightAware
08:14PM 36.4550 -113.2190 77° East 498 573 33,000  Level FlightAware
08:14PM 36.4730 -113.1200 77° East 498 573 33,000  Level FlightAware
08:15PM 36.4910 -113.0210 77° East 498 573 33,000  Level FlightAware
08:16PM 36.5090 -112.9210 77° East 499 574 33,000  Level FlightAware
08:16PM 36.5260 -112.8280 77° East 499 574 33,000  Level FlightAware
08:17PM 36.5440 -112.7270 77° East 504 580 33,000  Level FlightAware
08:17PM 36.5610 -112.6310 78° East 505 581 33,000  Level FlightAware
08:18PM 36.5800 -112.5260 77° East 506 582 33,000  Level FlightAware
08:19PM 36.5970 -112.4330 77° East 511 588 33,000  Level FlightAware
08:19PM 36.6150 -112.3290 78° East 512 589 33,000  Level FlightAware
08:20PM 36.6330 -112.2280 77° East 514 592 33,000  Level FlightAware
08:20PM 36.6510 -112.1200 78° East 516 594 33,000  Level FlightAware
08:21PM 36.6650 -112.0400 78° East 518 596 33,000  Level FlightAware
08:21PM 36.6850 -111.9260 78° East 520 598 33,000  Level FlightAware
08:22PM 36.7040 -111.8160 78° East 519 597 33,000  Level FlightAware
08:23PM 36.7190 -111.7250 78° East 519 597 33,000  Level FlightAware
08:23PM 36.7380 -111.6200 77° East 517 595 33,000  Level FlightAware
08:24PM 36.7560 -111.5090 79° East 510 587 33,000  Level FlightAware
08:24PM 36.7710 -111.4230 78° East 514 592 33,000  Level FlightAware
08:25PM 36.7890 -111.3120 79° East 521 600 33,000  Level FlightAware
08:26PM 36.8070 -111.2040 78° East 527 606 33,000  Level FlightAware
08:26PM 36.8240 -111.1000 78° East 529 609 33,000  Level FlightAware
08:27PM 36.8410 -111.0010 78° East 529 609 33,000  Level FlightAware
08:27PM 36.8570 -110.9070 78° East 529 609 33,000  Level FlightAware
08:28PM 36.8730 -110.8120 78° East 529 609 33,000  Level FlightAware
08:29PM 36.8880 -110.7210 78° East 529 609 33,000  Level FlightAware
08:29PM 36.9040 -110.6290 78° East 529 609 33,000  Level FlightAware
08:30PM 36.9190 -110.5380 78° East 529 609 33,000  Level FlightAware
08:30PM 36.9350 -110.4460 78° East 529 609 33,000  Level FlightAware
08:31PM 36.9500 -110.3540 78° East 529 609 33,000  Level FlightAware
08:32PM 36.9660 -110.2630 78° East 529 609 33,000  Level FlightAware
08:32PM 36.9810 -110.1710 78° East 529 609 33,000  Level FlightAware
08:33PM 36.9970 -110.0790 78° East 529 609 33,000  Level FlightAware
08:33PM 37.0130 -109.9870 78° East 529 609 33,000  Level FlightAware
08:34PM 37.0280 -109.8960 78° East 529 609 33,000  Level FlightAware
08:35PM 37.0440 -109.8010 78° East 529 609 33,000  Level FlightAware
08:35PM 37.0600 -109.7100 78° East 529 609 33,000  Level FlightAware
08:36PM 37.0760 -109.6150 78° East 529 609 33,000  Level FlightAware
08:36PM 37.0910 -109.5230 78° East 529 609 33,000  Level FlightAware
08:37PM 37.2260 -109.1360 66° East 33,000  Level FlightAware
08:38PM 37.2460 -109.0420 75° East 519 597 33,000  Level FlightAware
08:39PM 37.2710 -108.9190 76° East 514 592 33,000  Level FlightAware
08:40PM 37.3100 -108.7300 75° East 511 588 33,000  Level FlightAware
08:40PM 37.3280 -108.6400 76° East 509 586 33,000  Level FlightAware
08:41PM 37.3500 -108.5350 75° East 509 586 33,000  Level FlightAware
08:41PM 37.3700 -108.4390 75° East 508 585 33,000  Level FlightAware
08:42PM 37.3910 -108.3330 76° East 507 583 33,000  Level FlightAware
08:43PM 37.4100 -108.2390 76° East 506 582 33,000  Level FlightAware
08:43PM 37.4320 -108.1290 76° East 506 582 33,000  Level FlightAware
08:44PM 37.4530 -108.0250 76° East 505 581 33,000  Level FlightAware
08:44PM 37.4690 -107.9430 76° East 504 580 33,000 480 Level FlightAware
08:45PM 37.4920 -107.8260 76° East 502 578 33,600 840 Climbing FlightAware
08:46PM 37.5120 -107.7240 76° East 502 578 34,100 660 Climbing FlightAware
08:46PM 37.5310 -107.6250 76° East 505 581 34,400 540 Climbing FlightAware
08:47PM 37.5450 -107.5580 75° East 507 583 34,700 480 Climbing FlightAware
08:47PM 37.5700 -107.4250 77° East 509 586 35,000 180 Climbing FlightAware
08:48PM 37.5890 -107.3270 76° East 507 583 35,000  Level FlightAware
08:48PM 37.6080 -107.2310 76° East 505 581 35,000  Level FlightAware
08:49PM 37.6310 -107.1060 77° East 506 582 35,000  Level FlightAware
08:50PM 37.6480 -107.0190 76° East 508 585 35,000  Level FlightAware
08:50PM 37.6690 -106.9080 77° East 506 582 35,000  Level FlightAware
08:51PM 37.6850 -106.8230 77° East 506 582 35,000  Level FlightAware
08:52PM 37.7080 -106.6950 77° East 508 585 35,000  Level FlightAware
08:52PM 37.7270 -106.5960 76° East 507 583 35,000  Level FlightAware
08:53PM 37.7470 -106.4880 77° East 500 575 35,000  Level FlightAware
08:53PM 37.7680 -106.3800 76° East 492 566 35,000  Level FlightAware
08:54PM 37.7840 -106.2890 77° East 490 564 35,000  Level FlightAware
08:54PM 37.8020 -106.1890 77° East 489 563 35,000  Level FlightAware
08:55PM 37.8020 -106.1880 90° East 489 563 35,000  Level FlightAware
08:56PM 37.8440 -105.9590 77° East 489 563 35,000  Level FlightAware
08:56PM 37.8590 -105.8720 78° East 489 563 35,000  Level FlightAware
08:57PM 37.8760 -105.7750 77° East 490 564 35,000  Level FlightAware
08:58PM 37.9020 -105.6300 77° East 490 564 35,000  Level FlightAware
08:59PM 37.9180 -105.5440 77° East 490 564 35,000  Level FlightAware
08:59PM 37.9340 -105.4580 77° East 490 564 35,000  Level FlightAware
09:00PM 37.9550 -105.3290 78° East 487 560 35,000  Level FlightAware
09:00PM 37.9720 -105.2320 77° East 487 560 35,000  Level FlightAware
09:01PM 37.9880 -105.1380 78° East 488 562 35,000  Level FlightAware
09:01PM 38.0040 -105.0500 77° East 488 562 35,000  Level FlightAware
09:02PM 38.0290 -104.8990 78° East 491 565 35,000  Level FlightAware
09:03PM 38.0460 -104.7970 78° East 491 565 35,000  Level FlightAware
09:03PM 38.0610 -104.7060 78° East 492 566 35,000  Level FlightAware
09:04PM 38.0800 -104.5920 78° East 493 567 35,000  Level FlightAware
09:05PM 38.0940 -104.5080 78° East 494 568 35,000  Level FlightAware
09:05PM 38.1120 -104.4010 78° East 493 567 35,000  Level FlightAware
09:06PM 38.1280 -104.3060 78° East 493 567 35,000  Level FlightAware
09:06PM 38.1420 -104.2190 78° East 493 567 35,000  Level FlightAware
09:07PM 38.1570 -104.1240 79° East 492 566 35,000  Level FlightAware
09:07PM 38.1720 -104.0350 78° East 492 566 35,000  Level FlightAware
09:08PM 38.1870 -103.9490 77° East 492 566 35,000  Level FlightAware
09:09PM 38.2110 -103.7930 79° East 496 571 35,000  Level FlightAware
09:09PM 38.2260 -103.7030 78° East 496 571 35,000  Level FlightAware
09:10PM 38.2450 -103.5750 79° East 491 565 35,000  Level FlightAware
09:11PM 38.2630 -103.4560 79° East 491 565 35,000  Level FlightAware
09:11PM 38.2760 -103.3700 79° East 491 565 35,000  Level FlightAware
09:12PM 38.2890 -103.2830 79° East 491 565 35,000  Level FlightAware
09:13PM 38.3030 -103.1960 78° East 491 565 35,000  Level FlightAware
09:13PM 38.3160 -103.1090 79° East 491 565 35,000  Level FlightAware
09:14PM 38.3290 -103.0220 79° East 491 565 35,000  Level FlightAware
09:15PM 38.3660 -102.7910 78° East 493 567 35,000  Level FlightAware
09:15PM 38.3790 -102.7010 80° East 493 567 35,000  Level FlightAware
09:16PM 38.4010 -102.5550 79° East 499 574 35,000  Level FlightAware
09:17PM 38.4150 -102.4640 79° East 499 574 35,000  Level FlightAware
09:17PM 38.4280 -102.3750 79° East 499 574 35,000  Level FlightAware
09:18PM 38.4420 -102.2870 78° East 499 574 35,000  Level FlightAware
09:18PM 38.4550 -102.1980 79° East 499 574 35,000  Level FlightAware
09:19PM 38.4690 -102.1100 78° East 499 574 35,000  Level FlightAware
09:20PM 38.4830 -102.0190 79° East 499 574 35,000  Level FlightAware
09:20PM 38.4960 -101.9280 80° East 499 574 35,000  Level FlightAware
09:21PM 38.5100 -101.8390 79° East 499 574 35,000  Level FlightAware
09:21PM 38.5240 -101.7480 79° East 499 574 35,000  Level FlightAware
09:22PM 38.5370 -101.6590 79° East 499 574 35,000  Level FlightAware
09:23PM 38.5510 -101.5680 79° East 499 574 35,000  Level FlightAware
09:23PM 38.5650 -101.4770 79° East 499 574 35,000  Level FlightAware
09:24PM 38.5780 -101.3880 79° East 499 574 35,000  Level FlightAware
09:25PM 38.5920 -101.3000 78° East 499 574 35,000  Level FlightAware
09:25PM 38.6050 -101.2110 79° East 499 574 35,000  Level FlightAware
09:26PM 38.6358 -100.8803 79° East 505 581 35,000  Level Kansas City Center
09:26PM 38.6542 -100.7408 80° East 506 582 35,000  Level Denver Center
09:27PM 38.6808 -100.5386 80° East 513 590 35,000  Level Denver Center
09:29PM 38.7033 -100.3644 81° East 517 595 35,000  Level Denver Center
09:30PM 38.7286 -100.1603 81° East 519 597 35,000  Level Denver Center
09:31PM 38.7508 -99.9842 81° East 522 601 35,000  Level Denver Center
09:37PM 38.8860 -98.8700 81° East 517 595 35,000  Level FlightAware
09:37PM 38.9000 -98.7460 82° East 518 596 35,000  Level FlightAware
09:38PM 38.9140 -98.6250 82° East 520 598 35,000  Level FlightAware
09:38PM 38.9260 -98.5160 82° East 518 596 35,000  Level FlightAware
09:39PM 38.9464 -98.3868 78° East 523 602 35,000  Level FlightAware ADS-B
09:40PM 38.9610 -98.2920 79° East 523 602 35,000  Level FlightAware
09:40PM 38.9651 -98.2693 77° East 523 602 35,000  Level FlightAware ADS-B
09:40PM 38.9795 -98.1766 79° East 524 603 35,000  Level FlightAware ADS-B
09:41PM 38.9941 -98.0817 79° East 524 603 35,000  Level FlightAware ADS-B
09:41PM 39.0083 -97.9903 79° East 524 603 35,000  Level FlightAware ADS-B
09:42PM 39.0226 -97.8979 79° East 525 604 35,000  Level FlightAware ADS-B
09:42PM 39.0372 -97.8041 79° East 526 605 35,000  Level FlightAware ADS-B
09:43PM 39.0589 -97.6599 79° East 526 605 35,000  Level FlightAware ADS-B
09:44PM 39.0726 -97.5677 79° East 525 604 35,000  Level FlightAware ADS-B
09:44PM 39.0869 -97.4723 79° East 524 603 35,000  Level FlightAware ADS-B
09:45PM 39.1007 -97.3798 79° East 524 603 35,000  Level FlightAware ADS-B
09:45PM 39.1143 -97.2872 79° East 523 602 35,000  Level FlightAware ADS-B
09:46PM 39.1281 -97.1947 79° East 524 603 35,000  Level FlightAware ADS-B
09:46PM 39.1416 -97.1021 79° East 524 603 35,000  Level FlightAware ADS-B
09:47PM 39.1554 -97.0072 79° East 523 602 35,000  Level FlightAware ADS-B
09:47PM 39.1687 -96.9148 79° East 522 601 35,000  Level FlightAware ADS-B
09:48PM 39.1831 -96.8147 79° East 521 600 35,000  Level FlightAware ADS-B
09:48PM 39.1962 -96.7233 79° East 519 597 35,000  Level FlightAware ADS-B
09:49PM 39.2094 -96.6315 79° East 520 598 35,000  Level FlightAware ADS-B
09:49PM 39.2224 -96.5395 80° East 520 598 35,000  Level FlightAware ADS-B
09:50PM 39.2355 -96.4471 80° East 521 600 35,000  Level FlightAware ADS-B
09:50PM 39.2486 -96.3534 80° East 522 601 35,000  Level FlightAware ADS-B
09:51PM 39.2616 -96.2591 80° East 522 601 35,000  Level FlightAware ADS-B
09:51PM 39.2742 -96.1667 80° East 522 601 35,000  Level FlightAware ADS-B
09:52PM 39.2869 -96.0739 80° East 522 601 35,000  Level FlightAware ADS-B
09:52PM 39.2996 -95.9813 80° East 522 601 35,000  Level FlightAware ADS-B
09:53PM 39.3140 -95.8752 80° East 523 602 35,000  Level FlightAware ADS-B
09:53PM 39.3264 -95.7832 80° East 522 601 35,000  Level FlightAware ADS-B
09:54PM 39.3394 -95.6846 80° East 521 600 35,000  Level FlightAware ADS-B
09:54PM 39.3516 -95.5927 80° East 520 598 35,000  Level FlightAware ADS-B
09:55PM 39.3641 -95.4986 80° East 519 597 35,000  Level FlightAware ADS-B
09:55PM 39.3763 -95.4053 80° East 519 597 35,000  Level FlightAware ADS-B
09:56PM 39.3883 -95.3142 80° East 519 597 35,000  Level FlightAware ADS-B
09:56PM 39.4003 -95.2216 80° East 519 597 35,000  Level FlightAware ADS-B
09:57PM 39.4129 -95.1254 80° East 521 600 35,000  Level FlightAware ADS-B
09:58PM 39.4253 -95.0276 81° East 521 600 35,000  Level FlightAware ADS-B
09:58PM 39.4370 -94.9347 81° East 522 601 35,000  Level FlightAware ADS-B
09:59PM 39.4487 -94.8414 81° East 522 601 35,000  Level FlightAware ADS-B
09:59PM 39.4601 -94.7486 81° East 521 600 35,000  Level FlightAware ADS-B
10:00PM 39.4720 -94.6524 81° East 521 600 35,000  Level FlightAware ADS-B
10:00PM 39.4837 -94.5575 81° East 521 600 35,000  Level FlightAware ADS-B
10:01PM 39.4965 -94.4531 81° East 520 598 35,000  Level FlightAware ADS-B
10:01PM 39.5077 -94.3614 81° East 519 597 35,000  Level FlightAware ADS-B
10:02PM 39.5190 -94.2681 81° East 519 597 35,000  Level FlightAware ADS-B
10:02PM 39.5302 -94.1754 81° East 518 596 35,000  Level FlightAware ADS-B
10:03PM 39.5414 -94.0813 81° East 517 595 35,000  Level FlightAware ADS-B
10:03PM 39.5521 -93.9893 81° East 516 594 35,000  Level FlightAware ADS-B
10:04PM 39.5630 -93.8968 81° East 516 594 35,000  Level FlightAware ADS-B
10:04PM 39.5738 -93.8041 81° East 516 594 35,000  Level FlightAware ADS-B
10:05PM 39.5845 -93.7129 81° East 515 593 35,000  Level FlightAware ADS-B
10:05PM 39.5958 -93.6150 81° East 515 593 35,000  Level FlightAware ADS-B
10:06PM 39.6086 -93.5043 81° East 515 593 35,000  Level FlightAware ADS-B
10:06PM 39.6191 -93.4119 82° East 514 592 35,000  Level FlightAware ADS-B
10:07PM 39.6398 -93.2253 82° East 513 590 35,000  Level FlightAware ADS-B
10:08PM 39.6516 -93.1163 82° East 513 590 35,000  Level FlightAware ADS-B
10:09PM 39.6630 -93.0160 82° East 513 590 35,000  Level FlightAware
10:09PM 39.6750 -92.9000 82° East 513 590 35,000  Level FlightAware
10:10PM 39.6860 -92.8010 82° East 513 590 35,000  Level FlightAware
10:10PM 39.6970 -92.6940 82° East 514 592 35,000  Level FlightAware
10:11PM 39.7090 -92.5820 82° East 513 590 35,000  Level FlightAware
10:12PM 39.7210 -92.4650 82° East 513 590 35,000  Level FlightAware
10:12PM 39.7310 -92.3750 82° East 512 589 35,000  Level FlightAware
10:13PM 39.7430 -92.2540 83° East 510 587 35,000  Level FlightAware
10:13PM 39.7540 -92.1530 82° East 509 586 35,000  Level FlightAware
10:14PM 39.7640 -92.0510 83° East 507 583 35,000  Level FlightAware
10:14PM 39.7750 -91.9410 83° East 506 582 35,000  Level FlightAware
10:15PM 39.7850 -91.8400 83° East 503 579 35,000  Level FlightAware
10:16PM 39.7950 -91.7360 83° East 502 578 35,000  Level FlightAware
10:16PM 39.8050 -91.6300 83° East 501 577 35,000  Level FlightAware
10:17PM 39.8160 -91.5240 82° East 501 577 35,000  Level FlightAware
10:17PM 39.8260 -91.4160 83° East 501 577 35,000  Level FlightAware
10:18PM 39.8350 -91.3150 83° East 500 575 35,000  Level FlightAware
10:19PM 39.8460 -91.2010 83° East 501 577 35,000  Level FlightAware
10:19PM 39.8540 -91.1120 83° East 501 577 35,000  Level FlightAware
10:20PM 39.8650 -91.0000 83° East 501 577 35,000  Level FlightAware
10:20PM 39.8740 -90.8980 83° East 500 575 35,000  Level FlightAware
10:21PM 39.8840 -90.7840 83° East 501 577 35,000  Level FlightAware
10:21PM 39.8930 -90.6880 83° East 501 577 35,000  Level FlightAware
10:22PM 39.9020 -90.5850 83° East 501 577 35,000  Level FlightAware
10:23PM 39.9120 -90.4730 83° East 502 578 35,000  Level FlightAware
10:23PM 39.9210 -90.3640 84° East 503 579 35,000  Level FlightAware
10:24PM 39.9290 -90.2700 84° East 503 579 35,000  Level FlightAware
10:24PM 39.9380 -90.1600 84° East 500 575 35,000  Level FlightAware
10:25PM 39.9470 -90.0490 84° East 499 574 35,000  Level FlightAware
10:25PM 39.9550 -89.9510 84° East 499 574 35,000  Level FlightAware
10:26PM 39.9640 -89.8430 84° East 499 574 35,000  Level FlightAware
10:27PM 39.9730 -89.7390 84° East 498 573 35,000  Level FlightAware
10:27PM 39.9810 -89.6410 84° East 497 572 35,000  Level FlightAware
10:28PM 39.9890 -89.5340 84° East 497 572 35,000 240 Level FlightAware
10:28PM 40.0040 -89.4340 79° East 498 573 35,300 840 Climbing FlightAware
10:29PM 40.0200 -89.3300 79° East 494 568 36,000 960 Climbing FlightAware
10:30PM 40.0370 -89.2260 78° East 491 565 36,500 720 Climbing FlightAware
10:30PM 40.0530 -89.1240 78° East 492 566 36,900 420 Climbing FlightAware
10:31PM 40.0680 -89.0290 78° East 495 570 37,000 60 Climbing FlightAware
10:31PM 40.0840 -88.9210 79° East 495 570 37,000  Level FlightAware
10:32PM 40.1000 -88.8180 78° East 496 571 37,000  Level FlightAware
10:32PM 40.1150 -88.7200 79° East 496 571 37,000  Level FlightAware
10:33PM 40.1300 -88.6170 79° East 496 571 37,000  Level FlightAware
10:34PM 40.1460 -88.5070 79° East 495 570 37,000  Level FlightAware
10:34PM 40.1600 -88.4140 79° East 495 570 37,000  Level FlightAware
10:35PM 40.1760 -88.3080 79° East 493 567 37,000  Level FlightAware
10:35PM 40.1910 -88.2020 79° East 492 566 37,000  Level FlightAware
10:36PM 40.2070 -88.0960 79° East 491 565 37,000  Level FlightAware
10:37PM 40.2200 -88.0030 80° East 490 564 37,000  Level FlightAware
10:37PM 40.2360 -87.8970 79° East 489 563 37,000  Level FlightAware
10:38PM 40.2500 -87.7960 80° East 489 563 37,000  Level FlightAware
10:38PM 40.2630 -87.7070 79° East 488 562 37,000  Level FlightAware
10:39PM 40.2790 -87.5910 80° East 488 562 37,000  Level FlightAware
10:40PM 40.2940 -87.4890 79° East 488 562 37,000  Level FlightAware
10:40PM 40.3060 -87.3960 80° East 489 563 37,000  Level FlightAware
10:41PM 40.3210 -87.2870 80° East 490 564 37,000  Level FlightAware
10:41PM 40.3360 -87.1820 79° East 491 565 37,000  Level FlightAware
10:42PM 40.3500 -87.0780 80° East 492 566 37,000  Level FlightAware
10:42PM 40.3630 -86.9780 80° East 493 567 37,000  Level FlightAware
10:43PM 40.3760 -86.8840 80° East 494 568 37,000  Level FlightAware
10:44PM 40.3910 -86.7760 80° East 495 570 37,000  Level FlightAware
10:44PM 40.4050 -86.6730 80° East 497 572 37,000  Level FlightAware
10:45PM 40.4180 -86.5690 81° East 497 572 37,000  Level FlightAware
10:45PM 40.4320 -86.4610 80° East 498 573 37,000  Level FlightAware
10:46PM 40.4440 -86.3690 80° East 497 572 37,000  Level FlightAware
10:47PM 40.4590 -86.2550 80° East 498 573 37,000  Level FlightAware
10:47PM 40.4710 -86.1580 81° East 498 573 37,000  Level FlightAware
10:48PM 40.4850 -86.0480 80° East 498 573 37,000  Level FlightAware
10:48PM 40.4990 -85.9390 80° East 498 573 37,000  Level FlightAware
10:49PM 40.5110 -85.8450 80° East 498 573 37,000  Level FlightAware
10:49PM 40.5230 -85.7420 81° East 498 573 37,000  Level FlightAware
10:50PM 40.5370 -85.6290 81° East 496 571 37,000  Level FlightAware
10:51PM 40.5510 -85.5190 80° East 495 570 37,000  Level FlightAware
10:51PM 40.5610 -85.4300 82° East 494 568 37,000  Level FlightAware
10:52PM 40.5740 -85.3210 81° East 492 566 37,000  Level FlightAware
10:52PM 40.5880 -85.2100 81° East 491 565 37,000 -540 Level FlightAware
10:53PM 40.6010 -85.1030 81° East 491 565 36,400 -900 Descending FlightAware
10:53PM 40.6110 -85.0160 81° East 490 564 36,000 -1,020 Descending FlightAware
10:54PM 40.6250 -84.9030 81° East 491 565 35,300 -1,080 Descending FlightAware
10:55PM 40.6420 -84.8120 76° East 483 556 34,800 -900 Descending FlightAware
10:55PM 40.6670 -84.7120 72° East 475 547 34,300 -960 Descending FlightAware
10:56PM 40.6910 -84.6120 72° East 470 541 33,700 -1,020 Descending FlightAware
10:56PM 40.7140 -84.5160 72° East 469 540 33,100 -1,080 Descending FlightAware
10:57PM 40.7370 -84.4220 72° East 469 540 32,500 -1,080 Descending FlightAware
10:58PM 40.7640 -84.3100 72° East 462 532 31,800 -1,020 Descending FlightAware
10:58PM 40.7860 -84.2150 73° East 447 514 31,200 -1,020 Descending FlightAware
10:59PM 40.8080 -84.1210 73° East 435 501 30,600 -1,080 Descending FlightAware
10:59PM 40.8270 -84.0390 73° East 425 489 30,000 -1,260 Descending FlightAware
11:00PM 40.8470 -83.9540 73° East 416 479 29,200 -1,620 Descending FlightAware
11:01PM 40.8680 -83.8670 72° East 407 468 28,100 -1,920 Descending FlightAware
11:01PM 40.8870 -83.7870 73° East 403 464 27,000 -1,920 Descending FlightAware
11:02PM 40.9060 -83.7020 73° East 407 468 25,900 -1,860 Descending FlightAware
11:02PM 40.9260 -83.6170 73° East 406 467 24,800 -1,860 Descending FlightAware
11:03PM 40.9460 -83.5330 72° East 401 461 23,700 -1,860 Descending FlightAware
11:04PM 40.9650 -83.4490 73° East 394 453 22,600 -1,980 Descending FlightAware
11:04PM 40.9820 -83.3750 73° East 390 449 21,500 -1,860 Descending FlightAware
11:05PM 41.0000 -83.2930 74° East 384 442 20,500 -1,800 Descending FlightAware
11:05PM 41.0180 -83.2130 73° East 378 435 19,400 -1,920 Descending FlightAware
11:06PM 41.0360 -83.1340 73° East 376 433 18,200 -2,340 Descending FlightAware
11:07PM 41.0550 -83.0530 73° East 382 440 16,600 -2,520 Descending FlightAware
11:07PM 41.0710 -82.9800 74° East 382 440 15,400 -1,980 Descending FlightAware
11:08PM 41.0880 -82.9050 73° East 372 428 14,400 -1,800 Descending FlightAware
11:08PM 41.1050 -82.8270 74° East 362 417 13,300 -1,800 Descending FlightAware
11:09PM 41.1190 -82.7660 73° East 354 407 12,500 -1,800 Descending FlightAware
11:09PM 41.1350 -82.6910 74° East 350 403 11,300 -1,920 Descending FlightAware
11:10PM 41.1520 -82.6170 73° East 345 397 10,200 -1,200 Descending FlightAware
11:11PM 41.1660 -82.5550 73° East 344 396 9,900 -300 Descending FlightAware
11:11PM 41.1750 -82.5120 74° East 344 396 9,900  Level FlightAware
11:11PM 41.1800 -82.4920 72° East 344 396 9,900  Level FlightAware
11:11PM 41.1870 -82.4610 73° East 344 396 9,900  Level FlightAware
11:12PM 41.1970 -82.4190 72° East 344 396 9,900  Level FlightAware
11:12PM 41.2020 -82.3990 72° East 344 396 9,900 -1,020 Level FlightAware
11:13PM 41.2192 -82.3069 72° East 318 366 9,000 -1,440 Descending Indianapolis Center
11:13PM 41.2325 -82.2417 75° East 280 322 8,100 -1,620 Descending Cleveland Center
11:14PM 41.2408 -82.2058 73° East 288 331 7,500 -1,500 Descending Cleveland Center
11:14PM 41.2544 -82.1425 74° East 283 326 6,600 -1,140 Descending Cleveland Center
11:15PM 41.2614 -82.1061 76° East 279 321 6,400 -900 Descending Cleveland Center
11:15PM 41.2797 -82.0547 65° Northeast 239 275 5,700 -1,200 Descending Cleveland Center
11:16PM 41.2936 -82.0300 53° Northeast 242 278 5,200 -1,620 Descending Cleveland Center
11:16PM 41.3214 -81.9919 46° Northeast 215 247 4,100 -1,800 Descending Cleveland Center
11:17PM 41.3325 -81.9689 57° Northeast 223 257 3,400 -1,320 Descending Cleveland Center
11:17PM 41.3536 -81.9389 47° Northeast 184 212 2,800 -1,200 Descending Cleveland Center
11:18PM 41.3636 -81.9203 54° Northeast 185 213 2,200 -1,380 Descending Cleveland Center
11:18PM 41.3806 -81.8958 47° Northeast 141 162 1,400 -1,140 Descending Cleveland Center
11:19PM 41.3900 -81.8789 53° Northeast 157 181 1,100 -480 Descending Cleveland Center
11:20PM 41.4125 -81.8444 49° Northeast 151 174 800 -300 Descending Cleveland Center